Time;durP1;ratioP1;P1;durP2;ratioP2;P2;SDS_P1;SDS_P2;PMS_P1;PMS_P2;Temp;Humidity;BMP_temperature;BMP_pressure;BME280_temperature;BME280_humidity;BME280_pressure;Samples;Min_cycle;Max_cycle;Signal;HPM_P1;HPM_P2
2023/09/29 00:00:24;;;;;;;11.40;5.75;;;;;;;14.97;100.00;101539.13;5022586;28;20521;-76
2023/09/29 00:02:53;;;;;;;14.38;6.00;;;;;;;14.94;100.00;101531.34;5018779;28;20029;-77
2023/09/29 00:05:19;;;;;;;13.52;6.20;;;;;;;14.92;100.00;101544.53;5020448;28;20104;-76
2023/09/29 00:07:44;;;;;;;16.73;6.47;;;;;;;14.91;100.00;101544.56;5039911;28;20048;-76
2023/09/29 00:10:13;;;;;;;18.52;6.50;;;;;;;14.91;100.00;101550.69;5023838;28;20466;-76
2023/09/29 00:12:39;;;;;;;12.85;5.60;;;;;;;14.92;100.00;101541.06;5009575;28;20051;-76
2023/09/29 00:15:06;;;;;;;13.23;6.72;;;;;;;14.94;100.00;101541.84;5025809;28;20074;-76
2023/09/29 00:17:31;;;;;;;8.18;5.50;;;;;;;14.94;100.00;101536.59;5040928;28;20069;-76
2023/09/29 00:19:57;;;;;;;15.10;5.95;;;;;;;14.91;100.00;101531.44;5026344;28;20060;-76
2023/09/29 00:22:23;;;;;;;13.00;5.93;;;;;;;14.94;100.00;101533.97;5016610;28;20034;-76
2023/09/29 00:24:48;;;;;;;15.18;5.95;;;;;;;14.95;100.00;101535.72;5028523;28;20045;-76
2023/09/29 00:27:13;;;;;;;14.35;6.45;;;;;;;14.99;100.00;101527.69;5043963;28;20074;-76
2023/09/29 00:29:39;;;;;;;11.60;5.88;;;;;;;15.02;100.00;101531.97;5026799;28;20038;-76
2023/09/29 00:32:05;;;;;;;12.60;6.10;;;;;;;15.08;100.00;101536.19;5046689;28;20103;-77
2023/09/29 00:34:30;;;;;;;11.70;6.03;;;;;;;15.12;100.00;101529.94;5027323;28;20079;-77
2023/09/29 00:36:56;;;;;;;11.40;5.50;;;;;;;15.13;100.00;101519.38;5037365;28;20086;-76
2023/09/29 00:39:21;;;;;;;14.70;6.10;;;;;;;15.17;100.00;101522.75;5037244;28;20026;-76
2023/09/29 00:41:49;;;;;;;13.07;6.07;;;;;;;15.19;100.00;101521.78;5015213;28;20466;-75
2023/09/29 00:44:14;;;;;;;13.10;6.55;;;;;;;15.22;100.00;101515.59;5021399;28;20026;-76
2023/09/29 00:46:39;;;;;;;17.15;6.35;;;;;;;15.26;100.00;101526.84;5035681;28;20022;-75
2023/09/29 00:49:05;;;;;;;14.88;6.50;;;;;;;15.29;100.00;101518.88;5021070;28;20034;-76
2023/09/29 00:51:32;;;;;;;12.55;5.85;;;;;;;15.29;100.00;101514.47;5037033;28;20028;-76
2023/09/29 00:53:57;;;;;;;9.50;5.88;;;;;;;15.32;100.00;101505.66;5019696;28;20113;-76
2023/09/29 00:56:23;;;;;;;12.73;5.45;;;;;;;15.36;100.00;101507.25;5023826;28;20433;-76
2023/09/29 00:58:49;;;;;;;10.95;5.85;;;;;;;15.39;100.00;101515.91;5019650;28;20444;-76
2023/09/29 01:01:19;;;;;;;11.45;5.70;;;;;;;15.39;100.00;101515.91;5032967;28;20022;-76
2023/09/29 01:03:44;;;;;;;9.80;4.97;;;;;;;15.41;100.00;101508.84;5008989;28;20022;-76
2023/09/29 01:06:10;;;;;;;9.68;5.28;;;;;;;15.43;100.00;101520.16;5022979;28;20094;-76
2023/09/29 01:08:36;;;;;;;10.77;5.47;;;;;;;15.43;100.00;101509.66;5039326;28;20071;-76
2023/09/29 01:11:05;;;;;;;9.95;5.40;;;;;;;15.42;100.00;101502.66;5014171;28;20026;-76
2023/09/29 01:13:31;;;;;;;10.30;5.43;;;;;;;15.42;100.00;101501.81;5018556;28;20022;-76
2023/09/29 01:15:59;;;;;;;9.63;5.40;;;;;;;15.40;100.00;101495.72;5042265;28;20030;-75
2023/09/29 01:18:24;;;;;;;8.13;5.10;;;;;;;15.42;100.00;101497.41;5017787;28;20469;-75
2023/09/29 01:20:49;;;;;;;10.45;5.38;;;;;;;15.44;100.00;101494.75;5007885;28;20029;-75
2023/09/29 01:23:15;;;;;;;10.82;5.70;;;;;;;15.45;100.00;101485.94;5031146;28;20089;-75
2023/09/29 01:25:41;;;;;;;10.68;5.47;;;;;;;15.42;100.00;101478.16;5044078;28;20038;-76
2023/09/29 01:28:10;;;;;;;8.38;5.32;;;;;;;15.46;100.00;101492.91;5030845;28;20021;-75
2023/09/29 01:30:36;;;;;;;11.57;5.22;;;;;;;15.43;100.00;101478.13;5015313;28;20161;-76
2023/09/29 01:33:02;;;;;;;11.32;4.80;;;;;;;15.43;100.00;101480.75;5031445;28;20585;-76
2023/09/29 01:35:28;;;;;;;6.38;4.50;;;;;;;15.43;100.00;101479.88;5048330;28;20059;-75
2023/09/29 01:37:54;;;;;;;8.38;4.82;;;;;;;15.45;100.00;101483.31;5026430;28;20069;-75
2023/09/29 01:40:21;;;;;;;8.82;4.68;;;;;;;15.45;100.00;101473.66;5021020;28;20021;-75
2023/09/29 01:42:47;;;;;;;5.95;4.45;;;;;;;15.43;100.00;101458.84;5034161;28;20101;-75
2023/09/29 01:45:16;;;;;;;10.73;5.22;;;;;;;15.46;100.00;101458.75;5017993;28;20380;-75
2023/09/29 01:47:45;;;;;;;9.95;5.40;;;;;;;15.44;100.00;101460.59;5035059;28;20195;-75
2023/09/29 01:50:11;;;;;;;12.93;7.10;;;;;;;15.47;100.00;101471.00;5021740;28;20030;-75
2023/09/29 01:52:38;;;;;;;14.40;11.13;;;;;;;15.48;100.00;101467.44;5039635;28;20501;-75
2023/09/29 01:55:12;;;;;;;14.52;8.30;;;;;;;15.45;100.00;101452.63;5022953;28;20522;-75
2023/09/29 01:57:40;;;;;;;10.10;6.38;;;;;;;15.47;100.00;101449.97;5042512;28;20050;-75
2023/09/29 02:00:15;;;;;;;10.63;6.18;;;;;;;15.47;100.00;101452.59;5024399;28;20026;-75
2023/09/29 02:02:41;;;;;;;8.60;5.57;;;;;;;15.47;100.00;101452.59;5026213;28;20442;-75
2023/09/29 02:05:07;;;;;;;10.43;6.13;;;;;;;15.48;100.00;101433.28;5027794;28;20030;-75
2023/09/29 02:07:33;;;;;;;10.52;5.03;;;;;;;15.48;100.00;101442.94;5043200;28;20489;-75
2023/09/29 02:09:58;;;;;;;8.60;4.80;;;;;;;15.49;100.00;101435.00;5027211;28;20030;-75
2023/09/29 02:12:23;;;;;;;7.05;4.75;;;;;;;15.51;100.00;101434.97;5017698;28;20038;-75
2023/09/29 02:14:51;;;;;;;10.60;4.50;;;;;;;15.47;100.00;101439.47;5015680;28;20022;-75
2023/09/29 02:17:16;;;;;;;8.25;4.70;;;;;;;15.46;100.00;101449.09;5014342;28;20435;-75
2023/09/29 02:19:42;;;;;;;7.53;3.78;;;;;;;15.44;100.00;101444.81;5012260;28;20413;-75
2023/09/29 02:22:08;;;;;;;7.38;3.90;;;;;;;15.46;100.00;101432.47;5021588;28;20074;-75
2023/09/29 02:24:33;;;;;;;7.60;4.03;;;;;;;15.50;100.00;101436.72;5030631;28;20038;-75
2023/09/29 02:26:59;;;;;;;9.43;4.20;;;;;;;15.51;100.00;101430.56;5030877;28;20025;-75
2023/09/29 02:29:27;;;;;;;9.00;4.00;;;;;;;15.50;100.00;101422.72;5050814;28;20029;-75
2023/09/29 02:31:55;;;;;;;7.82;4.07;;;;;;;15.49;100.00;101426.25;5036582;28;20026;-76
2023/09/29 02:34:20;;;;;;;7.60;3.72;;;;;;;15.50;100.00;101428.84;5048235;28;20025;-75
2023/09/29 02:36:46;;;;;;;6.18;3.75;;;;;;;15.54;100.00;101424.34;5020856;28;20037;-75
2023/09/29 02:39:11;;;;;;;9.30;3.78;;;;;;;15.50;100.00;101413.09;5015462;28;20026;-75
2023/09/29 02:41:38;;;;;;;7.47;3.70;;;;;;;15.51;100.00;101408.69;5013428;28;20034;-76
2023/09/29 02:44:04;;;;;;;5.15;3.50;;;;;;;15.53;100.00;101405.09;5010751;28;20034;-75
2023/09/29 02:46:29;;;;;;;8.50;4.20;;;;;;;15.53;100.00;101406.84;5016751;28;20025;-76
2023/09/29 02:48:54;;;;;;;6.57;3.65;;;;;;;15.53;100.00;101402.47;5018293;28;20018;-75
2023/09/29 02:51:20;;;;;;;6.70;3.83;;;;;;;15.53;100.00;101401.59;5039075;28;20032;-75
2023/09/29 02:53:50;;;;;;;10.20;4.43;;;;;;;15.56;100.00;101401.47;5023276;28;20025;-75
2023/09/29 02:56:16;;;;;;;6.95;4.50;;;;;;;15.57;100.00;101398.81;5038864;28;20038;-75
2023/09/29 02:58:46;;;;;;;9.52;4.20;;;;;;;15.59;100.00;101396.97;5020052;28;20022;-76
2023/09/29 03:01:16;;;;;;;5.28;3.70;;;;;;;15.61;100.00;101384.63;5012017;28;20048;-76
2023/09/29 03:03:45;;;;;;;8.25;4.47;;;;;;;15.63;100.00;101382.84;5011004;28;20026;-75
2023/09/29 03:06:20;;;;;;;8.70;4.30;;;;;;;15.64;100.00;101383.69;5022173;28;20021;-76
2023/09/29 03:08:49;;;;;;;10.48;4.65;;;;;;;15.63;100.00;101388.09;5027654;28;20071;-76
2023/09/29 03:11:16;;;;;;;7.85;5.18;;;;;;;15.65;100.00;101380.97;5014494;28;20142;-76
2023/09/29 03:13:41;;;;;;;10.05;6.15;;;;;;;15.68;100.00;101383.53;5018550;28;20026;-75
2023/09/29 03:16:10;;;;;;;11.45;6.35;;;;;;;15.68;100.00;101388.78;5008531;28;20031;-75
2023/09/29 03:18:36;;;;;;;6.97;4.78;;;;;;;15.68;100.00;101380.06;5046946;28;20030;-76
2023/09/29 03:21:04;;;;;;;10.90;6.35;;;;;;;15.65;100.00;101375.72;5008684;28;20516;-75
2023/09/29 03:23:30;;;;;;;11.07;5.57;;;;;;;15.65;100.00;101383.63;5025139;28;20025;-75
2023/09/29 03:25:56;;;;;;;9.73;5.53;;;;;;;15.62;100.00;101375.84;5033817;28;20037;-75
2023/09/29 03:28:21;;;;;;;9.40;5.72;;;;;;;15.59;100.00;101370.69;5015998;28;20026;-75
2023/09/29 03:30:46;;;;;;;12.48;6.47;;;;;;;15.59;100.00;101368.06;5012952;28;20037;-76
2023/09/29 03:33:13;;;;;;;22.75;11.32;;;;;;;15.52;100.00;101347.31;5020781;28;20140;-75
2023/09/29 03:35:40;;;;;;;25.50;11.20;;;;;;;15.57;100.00;101354.13;5017714;28;20029;-76
2023/09/29 03:38:05;;;;;;;26.67;14.02;;;;;;;15.55;100.00;101348.06;5022091;28;20033;-75
2023/09/29 03:40:31;;;;;;;19.33;10.07;;;;;;;15.60;100.00;101359.28;5033960;28;20385;-75
2023/09/29 03:42:57;;;;;;;19.83;10.05;;;;;;;15.61;100.00;101349.63;5021716;28;20033;-75
2023/09/29 03:45:22;;;;;;;22.35;9.82;;;;;;;15.59;100.00;101331.28;5023698;28;20379;-75
2023/09/29 03:47:48;;;;;;;18.33;9.88;;;;;;;15.57;100.00;101334.88;5011252;28;20049;-75
2023/09/29 03:50:13;;;;;;;21.88;12.63;;;;;;;15.57;100.00;101330.47;5040627;28;20023;-75
2023/09/29 03:52:39;;;;;;;31.13;15.27;;;;;;;15.52;100.00;101321.91;5021782;28;20116;-75
2023/09/29 03:55:06;;;;;;;26.77;13.68;;;;;;;15.53;100.00;101336.78;5030631;28;20093;-75
2023/09/29 03:57:32;;;;;;;29.50;14.60;;;;;;;15.52;100.00;101326.31;5031565;28;20026;-75
2023/09/29 03:59:57;;;;;;;24.83;13.07;;;;;;;15.52;100.00;101335.03;5023903;28;20040;-75
2023/09/29 04:02:23;;;;;;;12.85;8.32;;;;;;;15.49;100.00;101329.88;5033293;28;20021;-75
2023/09/29 04:04:48;;;;;;;19.33;9.85;;;;;;;15.51;100.00;101325.44;5022646;28;20094;-75
2023/09/29 04:07:15;;;;;;;21.60;8.80;;;;;;;15.54;100.00;101317.47;5042972;28;20017;-76
2023/09/29 04:09:40;;;;;;;12.00;8.20;;;;;;;15.57;100.00;101319.13;5013758;28;20030;-75
2023/09/29 04:12:06;;;;;;;11.65;7.28;;;;;;;15.57;100.00;101314.72;5040581;28;20059;-76
2023/09/29 04:14:31;;;;;;;9.93;5.93;;;;;;;15.63;100.00;101310.97;5055569;28;20029;-75
2023/09/29 04:16:56;;;;;;;11.05;6.35;;;;;;;15.65;100.00;101327.56;5017224;28;20038;-75
2023/09/29 04:19:22;;;;;;;9.63;5.57;;;;;;;15.68;100.00;101328.34;5037482;28;20466;-75
2023/09/29 04:21:47;;;;;;;8.25;5.82;;;;;;;15.71;100.00;101323.91;5022842;28;20029;-76
2023/09/29 04:24:13;;;;;;;7.20;5.20;;;;;;;15.74;100.00;101323.78;5049088;28;20078;-76
2023/09/29 04:26:38;;;;;;;8.35;4.68;;;;;;;15.75;100.00;101310.56;5034582;28;20385;-75
2023/09/29 04:29:04;;;;;;;7.60;4.70;;;;;;;15.78;100.00;101305.19;5020726;28;20033;-75
2023/09/29 04:31:29;;;;;;;8.45;4.90;;;;;;;15.83;100.00;101299.78;5035860;28;20113;-76
2023/09/29 04:33:54;;;;;;;5.85;4.63;;;;;;;15.87;100.00;101296.13;5018297;28;20158;-76
2023/09/29 04:36:20;;;;;;;10.55;4.80;;;;;;;15.90;100.00;101291.59;5036680;28;20456;-76
2023/09/29 04:38:45;;;;;;;8.30;4.43;;;;;;;15.96;100.00;101300.13;5019760;28;20026;-76
2023/09/29 04:41:12;;;;;;;7.22;4.50;;;;;;;15.98;100.00;101314.94;5036559;28;20022;-75
2023/09/29 04:43:37;;;;;;;5.05;3.83;;;;;;;15.98;100.00;101298.31;5020556;28;20048;-75
2023/09/29 04:46:02;;;;;;;7.60;4.40;;;;;;;15.97;100.00;101289.59;5036130;28;20457;-75
2023/09/29 04:48:28;;;;;;;5.68;3.55;;;;;;;15.94;100.00;101291.47;5022877;28;20037;-75
2023/09/29 04:50:54;;;;;;;7.78;3.75;;;;;;;15.97;100.00;101302.72;5034373;28;20101;-75
2023/09/29 04:53:19;;;;;;;9.18;3.97;;;;;;;15.97;100.00;101299.25;5023991;28;20468;-75
2023/09/29 04:55:45;;;;;;;6.22;3.47;;;;;;;15.91;100.00;101292.44;5031774;28;20026;-75
2023/09/29 04:58:10;;;;;;;5.15;3.80;;;;;;;15.99;100.00;101307.91;5011339;28;20066;-75
2023/09/29 05:00:37;;;;;;;6.63;3.72;;;;;;;15.96;100.00;101302.78;5016436;28;20461;-76
2023/09/29 05:03:02;;;;;;;4.75;3.72;;;;;;;16.03;100.00;101306.91;5015950;28;20022;-76
2023/09/29 05:05:27;;;;;;;7.68;3.70;;;;;;;16.04;100.00;101295.47;5018773;28;20071;-76
2023/09/29 05:07:53;;;;;;;5.68;3.42;;;;;;;16.04;100.00;101306.81;5023006;28;20034;-76
2023/09/29 05:10:19;;;;;;;8.32;3.65;;;;;;;16.06;100.00;101302.38;5020047;28;20078;-76
2023/09/29 05:12:45;;;;;;;7.80;3.90;;;;;;;16.05;100.00;101305.91;5041573;28;20031;-76
2023/09/29 05:15:10;;;;;;;4.55;3.60;;;;;;;16.02;100.00;101289.38;5032503;28;20034;-75
2023/09/29 05:17:36;;;;;;;4.70;3.83;;;;;;;16.02;100.00;101286.75;5037635;28;20369;-75
2023/09/29 05:20:02;;;;;;;7.55;3.58;;;;;;;16.03;100.00;101281.47;5025893;28;20033;-75
2023/09/29 05:22:28;;;;;;;4.63;3.65;;;;;;;16.06;100.00;101281.34;5028408;28;20029;-76
2023/09/29 05:24:53;;;;;;;6.75;3.42;;;;;;;16.05;100.00;101279.59;5054039;28;20048;-76
2023/09/29 05:27:20;;;;;;;10.43;4.05;;;;;;;16.04;100.00;101275.28;5053780;28;20429;-75
2023/09/29 05:29:45;;;;;;;6.93;3.50;;;;;;;16.04;100.00;101272.63;5056797;28;20499;-76
2023/09/29 05:32:10;;;;;;;6.28;3.90;;;;;;;16.03;100.00;101277.97;5061588;28;20055;-76
2023/09/29 05:34:35;;;;;;;8.60;4.00;;;;;;;16.07;100.00;101267.25;5055152;28;20025;-76
2023/09/29 05:37:02;;;;;;;5.68;3.70;;;;;;;16.07;100.00;101267.25;5056597;28;20034;-75
2023/09/29 05:39:27;;;;;;;5.53;4.13;;;;;;;16.08;100.00;101276.84;5054127;28;20032;-75
2023/09/29 05:41:52;;;;;;;5.60;3.72;;;;;;;16.12;100.00;101269.69;5055989;28;20030;-76
2023/09/29 05:44:18;;;;;;;6.85;3.22;;;;;;;16.12;100.00;101270.59;5024055;28;20038;-75
2023/09/29 05:46:43;;;;;;;5.50;3.53;;;;;;;16.13;100.00;101271.44;5039525;28;20032;-76
2023/09/29 05:49:09;;;;;;;5.47;3.63;;;;;;;16.16;100.00;101268.69;5028841;28;20034;-76
2023/09/29 05:51:35;;;;;;;8.05;4.40;;;;;;;16.19;100.00;101273.81;5030677;28;20029;-76
2023/09/29 05:54:02;;;;;;;7.13;3.90;;;;;;;16.24;100.00;101276.25;5038887;28;20118;-76
2023/09/29 05:56:29;;;;;;;7.70;3.70;;;;;;;16.31;100.00;101281.19;5026039;28;20033;-75
2023/09/29 05:58:55;;;;;;;6.03;3.67;;;;;;;16.30;100.00;101287.38;5034279;28;20373;-76
2023/09/29 06:01:20;;;;;;;6.88;4.00;;;;;;;16.37;100.00;101285.38;5024385;28;20056;-75
2023/09/29 06:03:45;;;;;;;8.10;3.50;;;;;;;16.37;100.00;101277.47;5046284;28;20061;-76
2023/09/29 06:06:11;;;;;;;3.80;3.40;;;;;;;16.44;100.00;101292.09;5025215;28;20025;-75
2023/09/29 06:08:37;;;;;;;4.20;3.63;;;;;;;16.45;100.00;101278.03;5044282;28;20465;-76
2023/09/29 06:11:03;;;;;;;4.85;3.38;;;;;;;16.50;100.00;101280.47;5028492;28;20044;-76
2023/09/29 06:13:29;;;;;;;9.68;3.42;;;;;;;16.51;100.00;101290.94;5019881;28;20029;-75
2023/09/29 06:15:56;;;;;;;4.38;3.38;;;;;;;16.58;100.00;101299.44;5051390;28;20034;-75
2023/09/29 06:18:21;;;;;;;5.22;3.55;;;;;;;16.63;100.00;101293.03;5029218;28;20055;-76
2023/09/29 06:20:46;;;;;;;4.35;3.53;;;;;;;16.71;100.00;101291.88;5011989;28;20029;-75
2023/09/29 06:23:12;;;;;;;4.88;3.55;;;;;;;16.74;100.00;101286.47;5037432;28;20045;-75
2023/09/29 06:25:37;;;;;;;6.93;3.50;;;;;;;16.81;100.00;101293.25;5021972;28;20441;-76
2023/09/29 06:28:03;;;;;;;6.35;3.67;;;;;;;16.87;100.00;101279.78;5038106;28;20040;-76
2023/09/29 06:30:28;;;;;;;6.95;3.38;;;;;;;16.94;100.00;101283.03;5022596;28;20056;-76
2023/09/29 06:32:53;;;;;;;7.20;3.03;;;;;;;16.99;100.00;101279.28;5039383;28;20550;-76
2023/09/29 06:35:19;;;;;;;5.32;3.53;;;;;;;17.05;100.00;101278.16;5018727;28;20473;-76
2023/09/29 06:37:44;;;;;;;8.35;3.92;;;;;;;17.12;100.00;101284.03;5039524;28;20029;-76
2023/09/29 06:40:10;;;;;;;5.60;3.28;;;;;;;17.17;100.00;101282.06;5024908;28;20839;-75
2023/09/29 06:42:37;;;;;;;4.38;3.03;;;;;;;17.21;100.00;101286.25;5039275;28;20029;-76
2023/09/29 06:45:03;;;;;;;6.15;3.50;;;;;;;17.26;100.00;101290.38;5026742;28;20036;-76
2023/09/29 06:47:29;;;;;;;5.28;3.45;;;;;;;17.31;100.00;101292.81;5039821;28;20444;-75
2023/09/29 06:49:54;;;;;;;6.22;3.20;;;;;;;17.30;100.00;101291.97;5026909;28;20108;-76
2023/09/29 06:52:19;;;;;;;4.68;2.83;;;;;;;17.38;100.00;101302.16;5022546;28;20018;-76
2023/09/29 06:54:45;;;;;;;4.38;3.10;;;;;;;17.39;100.00;101300.38;5027124;28;20030;-76
2023/09/29 06:57:10;;;;;;;4.70;3.03;;;;;;;17.41;100.00;101304.66;5043674;28;20063;-75
2023/09/29 06:59:36;;;;;;;6.78;3.38;;;;;;;17.39;100.00;101300.38;5014809;28;20072;-76
2023/09/29 07:02:01;;;;;;;6.25;3.30;;;;;;;17.44;100.00;101301.91;5042044;28;20030;-76
2023/09/29 07:04:26;;;;;;;5.80;3.10;;;;;;;17.39;100.00;101298.59;5030496;28;20038;-76
2023/09/29 07:06:52;;;;;;;7.30;3.40;;;;;;;17.36;100.00;101297.88;5032405;28;20112;-76
2023/09/29 07:09:17;;;;;;;7.32;3.20;;;;;;;17.35;100.00;101304.09;5034971;28;20030;-76
2023/09/29 07:11:44;;;;;;;5.70;3.30;;;;;;;17.35;100.00;101307.56;5015081;28;20058;-76
2023/09/29 07:14:09;;;;;;;3.88;3.08;;;;;;;17.32;100.00;101313.81;5020751;28;20042;-76
2023/09/29 07:16:35;;;;;;;10.88;3.97;;;;;;;17.42;100.00;101303.72;5016299;28;20101;-76
2023/09/29 07:19:00;;;;;;;9.57;3.97;;;;;;;17.51;100.00;101311.22;5018321;28;20392;-77
2023/09/29 07:21:26;;;;;;;6.90;3.60;;;;;;;17.50;100.00;101301.63;5011127;28;20061;-77
2023/09/29 07:23:51;;;;;;;5.25;3.95;;;;;;;17.47;100.00;101296.50;5002754;28;20367;-76
2023/09/29 07:26:17;;;;;;;6.25;3.50;;;;;;;17.53;100.00;101311.19;4999801;28;20442;-77
2023/09/29 07:28:42;;;;;;;6.53;3.10;;;;;;;17.60;100.00;101317.03;5006205;28;20460;-77
2023/09/29 07:31:07;;;;;;;7.57;3.67;;;;;;;17.70;100.00;101319.16;5014783;28;20485;-77
2023/09/29 07:33:33;;;;;;;5.63;3.20;;;;;;;17.83;100.00;101314.22;5022766;28;20085;-77
2023/09/29 07:35:58;;;;;;;5.95;3.33;;;;;;;17.95;100.00;101311.03;5012613;28;20097;-77
2023/09/29 07:38:23;;;;;;;5.90;3.05;;;;;;;18.13;100.00;101308.44;5008362;28;20034;-77
2023/09/29 07:40:48;;;;;;;4.97;3.00;;;;;;;18.29;100.00;101319.13;5011453;28;20030;-77
2023/09/29 07:43:14;;;;;;;4.45;3.25;;;;;;;18.35;100.00;101311.75;5013697;28;20033;-77
2023/09/29 07:45:39;;;;;;;5.78;2.90;;;;;;;18.47;100.00;101310.28;5012006;28;20065;-77
2023/09/29 07:48:05;;;;;;;7.50;3.17;;;;;;;18.58;100.00;101323.00;5009162;28;20389;-77
2023/09/29 07:50:30;;;;;;;4.68;3.10;;;;;;;18.68;100.00;101321.59;5011069;28;20370;-77
2023/09/29 07:52:55;;;;;;;6.88;3.08;;;;;;;18.81;100.00;101316.59;5014541;28;20025;-77
2023/09/29 07:55:21;;;;;;;5.32;2.90;;;;;;;18.85;100.00;101316.34;5010240;28;20030;-77
2023/09/29 07:57:46;;;;;;;6.05;3.15;;;;;;;18.92;100.00;101316.88;5006795;28;20036;-77
2023/09/29 08:00:14;;;;;;;7.00;3.08;;;;;;;18.90;100.00;101322.25;5029896;28;20083;-77
2023/09/29 08:02:39;;;;;;;6.60;3.72;;;;;;;18.92;100.00;101325.66;5023191;28;20018;-77
2023/09/29 08:05:07;;;;;;;6.03;3.10;;;;;;;18.99;100.00;101326.22;5017226;28;20025;-76
2023/09/29 08:07:33;;;;;;;8.07;3.40;;;;;;;19.03;100.00;101335.72;5018387;28;20422;-78
2023/09/29 08:09:58;;;;;;;7.47;3.40;;;;;;;19.06;100.00;101334.69;5009840;28;20087;-77
2023/09/29 08:12:23;;;;;;;5.25;3.00;;;;;;;19.06;100.00;101340.81;5011823;28;20121;-77
2023/09/29 08:14:50;;;;;;;6.40;3.05;;;;;;;19.07;100.00;101337.25;5006149;28;20410;-77
2023/09/29 08:17:15;;;;;;;3.70;2.67;;;;;;;19.11;100.00;101344.09;5009997;28;20479;-77
2023/09/29 08:19:41;;;;;;;7.60;3.03;;;;;;;19.16;100.00;101343.84;5006670;28;20476;-77
2023/09/29 08:22:06;;;;;;;6.68;3.35;;;;;;;19.23;100.00;101347.91;5008454;28;20044;-77
2023/09/29 08:24:32;;;;;;;6.22;3.20;;;;;;;19.30;100.00;101356.38;5005669;28;20046;-78
2023/09/29 08:26:58;;;;;;;4.35;3.00;;;;;;;19.38;100.00;101359.44;5016998;28;20038;-78
2023/09/29 08:29:25;;;;;;;4.43;2.95;;;;;;;19.45;100.00;101367.91;5022302;28;20140;-78
2023/09/29 08:31:50;;;;;;;4.32;2.92;;;;;;;19.52;100.00;101364.00;5039630;28;20107;-77
2023/09/29 08:34:15;;;;;;;4.93;3.05;;;;;;;19.65;100.00;101365.09;5022135;28;20037;-77
2023/09/29 08:36:41;;;;;;;6.00;3.45;;;;;;;19.72;100.00;101366.50;5018047;28;20418;-77
2023/09/29 08:39:06;;;;;;;4.80;3.33;;;;;;;19.82;100.00;101375.66;5004852;28;20112;-78
2023/09/29 08:41:34;;;;;;;4.15;2.83;;;;;;;19.90;100.00;101377.88;5021201;28;20072;-77
2023/09/29 08:44:02;;;;;;;5.75;3.10;;;;;;;19.94;100.00;101383.84;5028711;28;20108;-77
2023/09/29 08:46:28;;;;;;;7.45;3.03;;;;;;;19.96;100.00;101384.63;5042877;28;20027;-77
2023/09/29 08:48:55;;;;;;;8.30;3.17;;;;;;;20.02;100.00;101394.91;5011111;28;20532;-77
2023/09/29 08:51:21;;;;;;;7.65;3.22;;;;;;;20.13;100.00;101384.56;5001836;28;20037;-76
2023/09/29 08:53:50;;;;;;;5.50;3.20;;;;;;;20.21;100.00;101387.66;5013748;28;20416;-76
2023/09/29 08:56:16;;;;;;;5.35;3.45;;;;;;;20.31;100.00;101395.94;5006536;28;20022;-77
2023/09/29 08:58:42;;;;;;;5.60;3.25;;;;;;;20.47;100.00;101380.91;5013346;28;20384;-76
2023/09/29 09:01:08;;;;;;;8.50;3.10;;;;;;;20.61;100.00;101390.75;5014627;28;20030;-76
2023/09/29 09:03:34;;;;;;;7.43;3.95;;;;;;;20.73;100.00;101387.41;5019368;28;20469;-77
2023/09/29 09:06:00;;;;;;;5.57;3.42;;;;;;;20.86;100.00;101386.69;5025581;28;20079;-77
2023/09/29 09:08:26;;;;;;;6.95;3.38;;;;;;;20.91;100.00;101385.47;5022414;28;20026;-76
2023/09/29 09:11:00;;;;;;;5.57;3.20;;;;;;;20.92;100.00;101386.31;5015542;28;20041;-77
2023/09/29 09:13:26;;;;;;;5.53;3.28;;;;;;;20.88;100.00;101392.75;5012400;28;20026;-77
2023/09/29 09:15:58;;;;;;;5.90;3.45;;;;;;;20.83;100.00;101389.50;5016664;28;20038;-77
2023/09/29 09:18:25;;;;;;;5.55;3.20;;;;;;;20.81;100.00;101394.91;5016485;28;20021;-77
2023/09/29 09:20:52;;;;;;;4.03;3.17;;;;;;;20.80;100.00;101404.66;5006249;28;20109;-77
2023/09/29 09:23:18;;;;;;;5.22;3.08;;;;;;;20.64;100.00;101405.63;5014963;28;20049;-77
2023/09/29 09:25:43;;;;;;;6.68;3.63;;;;;;;20.60;100.00;101406.72;5023909;28;20069;-77
2023/09/29 09:28:19;;;;;;;5.57;3.20;;;;;;;20.63;100.00;101410.03;5035361;28;20829;-76
2023/09/29 09:30:46;;;;;;;7.10;3.08;;;;;;;20.77;100.00;101415.44;5015274;28;20021;-76
2023/09/29 09:33:21;;;;;;;7.68;3.42;;;;;;;20.94;100.00;101418.91;5016658;28;20108;-77
2023/09/29 09:35:50;;;;;;;8.60;3.25;;;;;;;21.04;100.00;101415.63;5015360;28;20116;-76
2023/09/29 09:38:15;;;;;;;3.92;3.13;;;;;;;21.27;100.00;101416.94;5006422;28;20101;-76
2023/09/29 09:40:43;;;;;;;4.22;3.15;;;;;;;21.28;100.00;101418.63;5039539;28;20483;-76
2023/09/29 09:43:10;;;;;;;5.07;2.60;;;;;;;21.15;100.00;101427.41;5012909;28;20388;-77
2023/09/29 09:45:40;;;;;;;6.72;3.42;;;;;;;21.00;100.00;101434.47;5015613;28;20096;-77
2023/09/29 09:48:07;;;;;;;6.50;3.00;;;;;;;20.80;100.00;101431.16;5014059;28;20066;-77
2023/09/29 09:50:36;;;;;;;6.72;3.22;;;;;;;20.65;100.00;101439.97;5021254;28;20065;-77
2023/09/29 09:53:03;;;;;;;6.70;3.30;;;;;;;20.55;100.00;101436.13;5018785;28;20022;-76
2023/09/29 09:55:40;;;;;;;6.75;3.50;;;;;;;20.46;100.00;101441.91;5011763;28;20034;-77
2023/09/29 09:58:09;;;;;;;7.05;3.17;;;;;;;20.40;100.00;101450.16;5013622;28;20079;-77
2023/09/29 10:00:36;;;;;;;7.20;3.42;;;;;;;20.39;100.00;101451.97;5055235;28;20043;-77
2023/09/29 10:03:04;;;;;;;11.68;3.95;;;;;;;20.41;100.00;101450.09;5029267;28;20027;-76
2023/09/29 10:05:31;;;;;;;7.07;3.70;;;;;;;20.43;100.00;101460.59;5026007;28;20025;-77
2023/09/29 10:08:01;;;;;;;6.22;3.10;;;;;;;20.46;100.00;101457.78;5048888;28;20022;-77
2023/09/29 10:10:34;;;;;;;8.30;3.50;;;;;;;20.43;100.00;101463.25;5013029;28;20055;-77
2023/09/29 10:13:05;;;;;;;5.93;3.38;;;;;;;20.33;100.00;101452.31;5015149;28;20034;-77
2023/09/29 10:15:32;;;;;;;7.80;3.03;;;;;;;20.40;100.00;101458.13;5019588;28;20033;-81
2023/09/29 10:18:13;;;;;;;4.78;2.95;;;;;;;20.44;100.00;101459.69;5004989;28;20030;-78
2023/09/29 10:20:38;;;;;;;10.30;3.63;;;;;;;20.43;100.00;101458.81;5006463;28;20053;-78
2023/09/29 10:23:08;;;;;;;4.95;3.22;;;;;;;20.40;100.00;101458.13;5033607;28;20511;-79
2023/09/29 10:25:37;;;;;;;6.07;3.30;;;;;;;20.47;100.00;101451.53;5006120;28;20038;-79
2023/09/29 10:28:06;;;;;;;8.00;3.40;;;;;;;20.53;100.00;101456.53;5003149;28;20105;-79
2023/09/29 10:30:32;;;;;;;6.95;3.13;;;;;;;20.62;100.00;101465.78;5015355;28;20022;-80
2023/09/29 10:33:05;;;;;;;5.18;3.20;;;;;;;20.51;100.00;101463.72;5035773;28;20108;-79
2023/09/29 10:35:33;;;;;;;6.55;3.42;;;;;;;20.39;100.00;101457.28;5016985;28;20436;-79
2023/09/29 10:38:04;;;;;;;7.63;3.55;;;;;;;20.32;100.00;101466.50;5042511;28;20184;-79
2023/09/29 10:40:32;;;;;;;9.25;3.28;;;;;;;20.30;100.00;101474.50;5020506;28;20045;-79
2023/09/29 10:43:04;;;;;;;11.98;3.42;;;;;;;20.42;100.00;101477.44;5021582;28;20470;-79
2023/09/29 10:45:37;;;;;;;7.18;3.40;;;;;;;20.50;100.00;101484.03;5010080;28;20018;-79
2023/09/29 10:48:07;;;;;;;9.48;4.03;;;;;;;20.58;100.00;101487.13;5000146;28;20031;-79
2023/09/29 10:50:43;;;;;;;6.53;3.33;;;;;;;20.56;100.00;101474.91;5007044;28;20014;-80
2023/09/29 10:53:08;;;;;;;5.68;3.78;;;;;;;20.61;100.00;101479.97;5001788;28;20032;-80
2023/09/29 10:55:41;;;;;;;6.38;3.45;;;;;;;20.58;100.00;101487.13;5017492;28;20018;-79
2023/09/29 10:58:06;;;;;;;8.35;3.13;;;;;;;20.45;100.00;101490.50;5018358;28;20060;-79
2023/09/29 11:00:40;;;;;;;4.68;2.85;;;;;;;20.35;100.00;101488.34;5007287;28;20128;-79
2023/09/29 11:03:07;;;;;;;4.88;3.20;;;;;;;20.32;100.00;101496.47;5027035;28;20023;-79
2023/09/29 11:05:33;;;;;;;4.80;2.70;;;;;;;20.60;100.00;101496.78;5024755;28;20026;-79
2023/09/29 11:07:58;;;;;;;5.18;3.00;;;;;;;21.31;100.00;101485.69;5055218;28;20049;-79
2023/09/29 11:10:24;;;;;;;4.47;2.67;;;;;;;21.60;100.00;101495.47;5005849;28;20101;-79